createdAt,value
2023-03-28T00:00:18.211Z,97404.50
2023-03-28T00:02:44.833Z,97402.88
2023-03-28T00:05:11.505Z,97402.03
2023-03-28T00:07:38.293Z,97408.19
2023-03-28T00:10:04.938Z,97398.16
2023-03-28T00:12:31.532Z,97395.69
2023-03-28T00:14:58.109Z,97399.09
2023-03-28T00:17:24.728Z,97403.19
2023-03-28T00:19:51.562Z,97411.78
2023-03-28T00:22:18.095Z,97410.81
2023-03-28T00:24:44.662Z,97410.81
2023-03-28T00:27:11.250Z,97415.50
2023-03-28T00:29:37.823Z,97410.84
2023-03-28T00:32:04.428Z,97409.66
2023-03-28T00:34:31.006Z,97404.31
2023-03-28T00:36:57.629Z,97422.63
2023-03-28T00:39:24.221Z,97437.28
2023-03-28T00:41:50.799Z,97442.13
2023-03-28T00:44:17.403Z,97447.19
2023-03-28T00:46:44.082Z,97438.38
2023-03-28T00:49:10.588Z,97446.50
2023-03-28T00:51:37.159Z,97455.69
2023-03-28T00:54:03.762Z,97460.28
2023-03-28T00:56:30.377Z,97459.25
2023-03-28T00:58:56.934Z,97458.19
2023-03-28T01:01:23.619Z,97450.38
2023-03-28T01:03:50.207Z,97439.19
2023-03-28T01:06:16.775Z,97441.22
2023-03-28T01:08:43.314Z,97468.66
2023-03-28T01:11:09.903Z,97477.88
2023-03-28T01:13:36.495Z,97467.41
2023-03-28T01:16:03.345Z,97479.16
2023-03-28T01:18:30.207Z,97478.72
2023-03-28T01:20:56.779Z,97479.88
2023-03-28T01:23:23.391Z,97474.19
2023-03-28T01:25:49.965Z,97467.19
2023-03-28T01:28:16.530Z,97475.19
2023-03-28T01:30:43.087Z,97478.72
2023-03-28T01:33:09.681Z,97482.13
2023-03-28T01:35:36.381Z,97483.63
2023-03-28T01:38:02.993Z,97496.56
2023-03-28T01:40:29.549Z,97503.41
2023-03-28T01:42:56.112Z,97506.13
2023-03-28T01:45:22.844Z,97521.56
2023-03-28T01:47:49.805Z,97509.31
2023-03-28T01:50:16.441Z,97514.41
2023-03-28T01:52:43.046Z,97510.44
2023-03-28T01:55:09.645Z,97503.25
2023-03-28T01:57:36.287Z,97501.75
2023-03-28T02:00:02.888Z,97508.19
2023-03-28T02:02:29.666Z,97503.72
2023-03-28T02:04:57.170Z,97503.50
2023-03-28T02:07:23.942Z,97506.59
2023-03-28T02:09:50.573Z,97503.00
2023-03-28T02:12:18.184Z,97505.38
2023-03-28T02:14:44.769Z,97501.31
2023-03-28T02:17:11.330Z,97506.97
2023-03-28T02:19:37.925Z,97518.88
2023-03-28T02:22:04.475Z,97512.88
2023-03-28T02:24:31.025Z,97520.97
2023-03-28T02:26:57.616Z,97525.97
2023-03-28T02:29:24.174Z,97528.13
2023-03-28T02:31:50.798Z,97532.53
2023-03-28T02:34:17.382Z,97535.06
2023-03-28T02:36:43.968Z,97528.78
2023-03-28T02:39:10.555Z,97530.78
2023-03-28T02:41:37.133Z,97538.78
2023-03-28T02:44:03.677Z,97538.31
2023-03-28T02:46:31.316Z,97551.44
2023-03-28T02:48:57.953Z,97547.47
2023-03-28T02:51:24.540Z,97556.38
2023-03-28T02:53:51.109Z,97558.28
2023-03-28T02:56:17.818Z,97558.03
2023-03-28T02:58:44.466Z,97559.22
2023-03-28T03:01:11.077Z,97559.44
2023-03-28T03:03:37.807Z,97570.72
2023-03-28T03:06:04.535Z,97575.44
2023-03-28T03:08:31.081Z,97572.34
2023-03-28T03:10:57.714Z,97565.28
2023-03-28T03:13:24.272Z,97561.81
2023-03-28T03:15:50.942Z,97565.78
2023-03-28T03:18:17.538Z,97562.00
2023-03-28T03:20:44.130Z,97559.84
2023-03-28T03:23:10.720Z,97565.88
2023-03-28T03:25:37.336Z,97560.28
2023-03-28T03:28:03.880Z,97571.28
2023-03-28T03:30:30.428Z,97576.06
2023-03-28T03:32:57.048Z,97577.03
2023-03-28T03:35:23.728Z,97576.06
2023-03-28T03:37:50.339Z,97579.50
2023-03-28T03:40:16.910Z,97580.56
2023-03-28T03:42:43.467Z,97588.06
2023-03-28T03:45:10.075Z,97588.38
2023-03-28T03:47:36.699Z,97595.09
2023-03-28T03:50:03.281Z,97601.88
2023-03-28T03:52:29.865Z,97612.75
2023-03-28T03:54:56.431Z,97609.97
2023-03-28T03:57:23.075Z,97610.56
2023-03-28T03:59:49.733Z,97606.25
2023-03-28T04:02:16.415Z,97608.84
2023-03-28T04:04:43.067Z,97607.38
2023-03-28T04:07:09.753Z,97607.59
2023-03-28T04:09:36.333Z,97613.03
2023-03-28T04:12:02.913Z,97618.31
2023-03-28T04:14:29.450Z,97615.72
2023-03-28T04:16:56.091Z,97615.38
2023-03-28T04:19:22.754Z,97625.19
2023-03-28T04:21:49.462Z,97625.50
2023-03-28T04:24:16.074Z,97631.31
2023-03-28T04:26:45.017Z,97622.59
2023-03-28T04:29:11.613Z,97622.72
2023-03-28T04:31:38.225Z,97635.63
2023-03-28T04:34:05.071Z,97635.88
2023-03-28T04:36:31.732Z,97647.38
2023-03-28T04:38:58.320Z,97637.06
2023-03-28T04:41:24.899Z,97649.16
2023-03-28T04:43:51.541Z,97652.69
2023-03-28T04:46:18.235Z,97661.00
2023-03-28T04:48:44.929Z,97659.19
2023-03-28T04:51:11.485Z,97663.75
2023-03-28T04:53:38.088Z,97666.03
2023-03-28T04:56:04.689Z,97670.06
2023-03-28T04:58:31.300Z,97680.88
2023-03-28T05:00:58.053Z,97679.47
2023-03-28T05:03:24.966Z,97678.25
2023-03-28T05:05:51.700Z,97666.22
2023-03-28T05:08:18.687Z,97680.13
2023-03-28T05:10:45.288Z,97676.09
2023-03-28T05:13:11.871Z,97678.00
2023-03-28T05:15:38.451Z,97683.72
2023-03-28T05:18:05.080Z,97682.84
2023-03-28T05:20:31.648Z,97671.84
2023-03-28T05:22:58.272Z,97683.84
2023-03-28T05:25:25.240Z,97692.22
2023-03-28T05:27:51.839Z,97685.69
2023-03-28T05:30:18.530Z,97689.91
2023-03-28T05:32:45.153Z,97686.78
2023-03-28T05:35:11.745Z,97684.56
2023-03-28T05:37:41.423Z,97685.84
2023-03-28T05:40:11.473Z,97685.00
2023-03-28T05:42:38.044Z,97688.00
2023-03-28T05:45:04.643Z,97689.31
2023-03-28T05:47:31.293Z,97691.38
2023-03-28T05:49:57.824Z,97686.91
2023-03-28T05:52:24.387Z,97694.94
2023-03-28T05:54:52.356Z,97697.72
2023-03-28T05:57:19.269Z,97705.03
2023-03-28T05:59:45.883Z,97707.03
2023-03-28T06:02:12.442Z,97710.22
2023-03-28T06:04:39.126Z,97716.25
2023-03-28T06:07:05.755Z,97712.28
2023-03-28T06:09:32.349Z,97718.22
2023-03-28T06:11:58.897Z,97719.50
2023-03-28T06:14:25.445Z,97723.03
2023-03-28T06:16:52.143Z,97712.72
2023-03-28T06:19:19.007Z,97722.59
2023-03-28T06:21:45.705Z,97723.41
2023-03-28T06:24:12.335Z,97727.72
2023-03-28T06:26:38.867Z,97728.94
2023-03-28T06:29:05.445Z,97728.53
2023-03-28T06:31:32.159Z,97738.06
2023-03-28T06:33:58.767Z,97728.59
2023-03-28T06:36:25.317Z,97739.09
2023-03-28T06:38:51.958Z,97733.25
2023-03-28T06:41:18.562Z,97733.44
2023-03-28T06:43:45.192Z,97736.41
2023-03-28T06:46:11.810Z,97735.47
2023-03-28T06:48:38.405Z,97727.75
2023-03-28T06:51:05.020Z,97731.78
2023-03-28T06:53:31.607Z,97732.66
2023-03-28T06:55:58.165Z,97733.06
2023-03-28T06:58:24.740Z,97737.34
2023-03-28T07:00:51.352Z,97740.22
2023-03-28T07:03:17.997Z,97736.97
2023-03-28T07:05:44.670Z,97739.16
2023-03-28T07:08:11.233Z,97742.28
2023-03-28T07:10:37.857Z,97741.91
2023-03-28T07:13:04.458Z,97743.19
2023-03-28T07:15:31.036Z,97745.56
2023-03-28T07:17:57.647Z,97752.00
2023-03-28T07:20:24.325Z,97743.25
2023-03-28T07:22:50.963Z,97737.34
2023-03-28T07:25:17.564Z,97730.63
2023-03-28T07:27:44.158Z,97729.00
2023-03-28T07:30:10.732Z,97734.56
2023-03-28T07:32:48.100Z,97739.13
2023-03-28T07:35:21.059Z,97738.81
2023-03-28T07:37:47.631Z,97747.97
2023-03-28T07:40:14.386Z,97754.19
2023-03-28T07:42:40.992Z,97756.03
2023-03-28T07:45:07.545Z,97757.50
2023-03-28T07:47:34.191Z,97756.34
2023-03-28T07:50:00.756Z,97760.78
2023-03-28T07:52:27.362Z,97752.91
2023-03-28T07:54:54.091Z,97753.84
2023-03-28T07:57:20.764Z,97766.13
2023-03-28T07:59:47.362Z,97760.59
2023-03-28T08:02:13.964Z,97750.78
2023-03-28T08:04:40.535Z,97761.78
2023-03-28T08:07:07.097Z,97766.13
2023-03-28T08:09:33.637Z,97770.53
2023-03-28T08:12:00.244Z,97761.75
2023-03-28T08:14:26.813Z,97787.59
2023-03-28T08:16:53.373Z,97784.00
2023-03-28T08:19:19.938Z,97774.88
2023-03-28T08:21:46.493Z,97779.56
2023-03-28T08:24:19.572Z,97777.16
2023-03-28T08:26:52.178Z,97775.28
2023-03-28T08:29:18.849Z,97784.06
2023-03-28T08:31:45.513Z,97784.16
2023-03-28T08:34:12.256Z,97787.31
2023-03-28T08:36:38.811Z,97779.34
2023-03-28T08:39:05.465Z,97789.00
2023-03-28T08:41:32.055Z,97794.69
2023-03-28T08:43:58.621Z,97786.47
2023-03-28T08:46:25.228Z,97792.84
2023-03-28T08:48:51.947Z,97796.53
2023-03-28T08:51:18.517Z,97796.34
2023-03-28T08:53:45.357Z,97800.09
2023-03-28T08:56:11.914Z,97810.22
2023-03-28T08:58:38.764Z,97801.94
2023-03-28T09:01:06.888Z,97801.63
2023-03-28T09:03:33.552Z,97811.00
2023-03-28T09:06:00.382Z,97798.84
2023-03-28T09:08:27.157Z,97805.84
2023-03-28T09:10:53.772Z,97809.13
2023-03-28T09:13:20.404Z,97816.63
2023-03-28T09:15:46.961Z,97821.16
2023-03-28T09:18:13.840Z,97816.63
2023-03-28T09:20:42.628Z,97826.53
2023-03-28T09:23:09.805Z,97822.59
2023-03-28T09:25:36.383Z,97829.56
2023-03-28T09:28:03.093Z,97843.69
2023-03-28T09:30:29.721Z,97832.13
2023-03-28T09:32:56.578Z,97832.28
2023-03-28T09:35:23.225Z,97843.59
2023-03-28T09:37:49.874Z,97853.31
2023-03-28T09:40:16.442Z,97863.59
2023-03-28T09:42:43.047Z,97857.97
2023-03-28T09:45:09.721Z,97855.78
2023-03-28T09:47:36.731Z,97875.16
2023-03-28T09:50:12.405Z,97868.38
2023-03-28T09:52:39.958Z,97875.19
2023-03-28T09:55:07.241Z,97870.53
2023-03-28T09:57:33.877Z,97877.19
2023-03-28T10:00:00.479Z,97877.00
2023-03-28T10:02:27.116Z,97901.47
2023-03-28T10:04:53.780Z,97913.41
2023-03-28T10:07:20.340Z,97915.66
2023-03-28T10:09:46.891Z,97912.63
2023-03-28T10:12:13.525Z,97913.72
2023-03-28T10:14:40.095Z,97910.06
2023-03-28T10:17:06.670Z,97914.50
2023-03-28T10:19:33.309Z,97913.28
2023-03-28T10:21:59.880Z,97914.25
2023-03-28T10:24:26.418Z,97917.44
2023-03-28T10:26:53.004Z,97909.56
2023-03-28T10:29:19.696Z,97915.66
2023-03-28T10:31:46.391Z,97917.91
2023-03-28T10:34:13.130Z,97915.47
2023-03-28T10:36:39.700Z,97909.84
2023-03-28T10:39:06.366Z,97914.00
2023-03-28T10:41:32.941Z,97915.03
2023-03-28T10:43:59.523Z,97903.03
2023-03-28T10:46:26.100Z,97904.97
2023-03-28T10:48:52.960Z,97896.16
2023-03-28T10:51:19.587Z,97908.41
2023-03-28T10:53:46.155Z,97907.31
2023-03-28T10:56:12.712Z,97897.94
2023-03-28T10:58:39.287Z,97896.06
2023-03-28T11:01:05.873Z,97891.72
2023-03-28T11:03:32.594Z,97898.41
2023-03-28T11:06:08.737Z,97901.50
2023-03-28T11:08:36.347Z,97898.44
2023-03-28T11:11:03.066Z,97904.03
2023-03-28T11:13:29.842Z,97905.25
2023-03-28T11:15:56.459Z,97924.66
2023-03-28T11:18:23.023Z,97922.41
2023-03-28T11:20:49.678Z,97931.84
2023-03-28T11:23:16.282Z,97933.66
2023-03-28T11:25:42.845Z,97933.44
2023-03-28T11:28:09.409Z,97947.16
2023-03-28T11:30:35.974Z,97947.09
2023-03-28T11:33:02.800Z,97943.84
2023-03-28T11:35:29.419Z,97929.50
2023-03-28T11:37:56.210Z,97943.50
2023-03-28T11:40:22.830Z,97955.56
2023-03-28T11:42:49.395Z,97945.84
2023-03-28T11:45:15.987Z,97941.47
2023-03-28T11:47:42.665Z,97947.75
2023-03-28T11:50:09.267Z,97948.53
2023-03-28T11:52:36.762Z,97949.88
2023-03-28T11:55:03.567Z,97957.38
2023-03-28T11:57:30.164Z,97950.16
2023-03-28T11:59:57.774Z,97952.91
2023-03-28T12:02:24.418Z,97940.06
2023-03-28T12:04:51.129Z,97936.41
2023-03-28T12:07:17.700Z,97939.72
2023-03-28T12:09:44.263Z,97934.84
2023-03-28T12:12:10.843Z,97932.75
2023-03-28T12:14:37.418Z,97932.06
2023-03-28T12:17:04.102Z,97941.69
2023-03-28T12:19:30.766Z,97918.59
2023-03-28T12:21:57.376Z,97920.97
2023-03-28T12:24:24.008Z,97922.81
2023-03-28T12:26:50.574Z,97921.41
2023-03-28T12:29:17.162Z,97915.78
2023-03-28T12:31:43.726Z,97910.50
2023-03-28T12:34:10.364Z,97912.66
2023-03-28T12:36:36.936Z,97927.13
2023-03-28T12:39:03.478Z,97917.47
2023-03-28T12:41:30.097Z,97910.28
2023-03-28T12:43:57.546Z,97912.31
2023-03-28T12:46:24.194Z,97924.34
2023-03-28T12:48:50.798Z,97929.16
2023-03-28T12:51:17.444Z,97909.50
2023-03-28T12:53:44.011Z,97925.22
2023-03-28T12:56:10.781Z,97929.13
2023-03-28T12:58:37.324Z,97935.56
2023-03-28T13:01:03.994Z,97956.53
2023-03-28T13:03:30.584Z,97938.66
2023-03-28T13:05:57.160Z,97933.94
2023-03-28T13:08:24.434Z,97938.97
2023-03-28T13:10:51.109Z,97919.53
2023-03-28T13:13:17.698Z,97919.59
2023-03-28T13:15:44.337Z,97915.66
2023-03-28T13:18:10.952Z,97914.63
2023-03-28T13:20:37.633Z,97924.13
2023-03-28T13:23:04.189Z,97919.97
2023-03-28T13:25:30.765Z,97915.44
2023-03-28T13:27:57.325Z,97919.78
2023-03-28T13:30:23.907Z,97911.53
2023-03-28T13:32:50.539Z,97919.94
2023-03-28T13:35:17.143Z,97908.44
2023-03-28T13:37:43.720Z,97910.41
2023-03-28T13:40:10.318Z,97923.19
2023-03-28T13:42:36.914Z,97924.16
2023-03-28T13:45:03.468Z,97928.09
2023-03-28T13:47:30.138Z,97912.13
2023-03-28T13:49:56.715Z,97928.44
2023-03-28T13:52:23.354Z,97907.09
2023-03-28T13:54:49.949Z,97892.88
2023-03-28T13:57:16.599Z,97908.97
2023-03-28T13:59:43.232Z,97908.03
2023-03-28T14:02:09.847Z,97909.72
2023-03-28T14:04:36.510Z,97915.91
2023-03-28T14:07:03.121Z,97907.47
2023-03-28T14:09:30.720Z,97945.03
2023-03-28T14:11:57.258Z,97933.66
2023-03-28T14:14:23.868Z,97945.63
2023-03-28T14:16:50.506Z,97925.59
2023-03-28T14:19:19.025Z,97933.41
2023-03-28T14:21:47.083Z,97934.00
2023-03-28T14:24:13.696Z,97942.41
2023-03-28T14:26:40.282Z,97940.00
2023-03-28T14:29:07.018Z,97948.81
2023-03-28T14:31:33.617Z,97901.47
2023-03-28T14:34:00.339Z,97947.81
2023-03-28T14:36:26.906Z,97935.88
2023-03-28T14:38:53.470Z,97921.59
2023-03-28T14:41:20.284Z,97940.41
2023-03-28T14:43:46.828Z,97936.53
2023-03-28T14:46:13.494Z,97936.44
2023-03-28T14:48:40.143Z,97938.31
2023-03-28T14:51:06.714Z,97943.81
2023-03-28T14:53:33.270Z,97938.16
2023-03-28T14:56:02.214Z,97934.19
2023-03-28T14:58:30.025Z,97931.78
2023-03-28T15:00:56.693Z,97937.84
2023-03-28T15:03:23.386Z,97931.63
2023-03-28T15:05:50.022Z,97939.50
2023-03-28T15:08:16.634Z,97947.47
2023-03-28T15:10:43.223Z,97942.50
2023-03-28T15:13:09.846Z,97941.31
2023-03-28T15:15:36.453Z,97958.34
2023-03-28T15:18:03.231Z,97951.47
2023-03-28T15:20:30.013Z,97944.78
2023-03-28T15:22:56.569Z,97944.03
2023-03-28T15:25:23.244Z,97941.97
2023-03-28T15:27:49.791Z,97948.19
2023-03-28T15:30:16.523Z,97937.72
2023-03-28T15:32:43.090Z,97941.38
2023-03-28T15:35:12.136Z,97943.13
2023-03-28T15:37:39.159Z,97940.56
2023-03-28T15:40:05.765Z,97957.66
2023-03-28T15:42:32.357Z,97954.91
2023-03-28T15:44:58.944Z,97963.94
2023-03-28T15:47:25.577Z,97967.22
2023-03-28T15:49:52.188Z,97960.00
2023-03-28T15:52:18.745Z,97963.38
2023-03-28T15:54:45.374Z,97969.59
2023-03-28T15:57:11.983Z,97969.56
2023-03-28T15:59:38.633Z,97978.44
2023-03-28T16:02:05.237Z,97998.81
2023-03-28T16:04:31.914Z,97984.88
2023-03-28T16:06:58.493Z,97990.00
2023-03-28T16:09:25.101Z,98001.94
2023-03-28T16:11:51.706Z,97995.59
2023-03-28T16:14:18.281Z,98003.50
2023-03-28T16:16:44.929Z,98011.56
2023-03-28T16:19:11.542Z,98003.44
2023-03-28T16:21:38.159Z,98008.56
2023-03-28T16:24:04.710Z,98015.53
2023-03-28T16:26:31.334Z,98021.03
2023-03-28T16:28:57.885Z,98025.00
2023-03-28T16:31:24.585Z,98018.34
2023-03-28T16:33:51.271Z,98023.91
2023-03-28T16:36:17.917Z,98034.03
2023-03-28T16:38:44.542Z,98050.31
2023-03-28T16:41:11.188Z,98050.56
2023-03-28T16:43:37.777Z,98044.63
2023-03-28T16:46:04.527Z,98055.19
2023-03-28T16:48:31.288Z,98059.09
2023-03-28T16:50:57.854Z,98063.75
2023-03-28T16:53:24.495Z,98062.72
2023-03-28T16:55:51.063Z,98061.91
2023-03-28T16:58:17.691Z,98070.16
2023-03-28T17:00:44.448Z,98063.91
2023-03-28T17:03:11.190Z,98063.94
2023-03-28T17:05:37.895Z,98057.16
2023-03-28T17:08:04.486Z,98063.41
2023-03-28T17:10:31.063Z,98068.47
2023-03-28T17:12:57.612Z,98069.34
2023-03-28T17:15:24.190Z,98072.78
2023-03-28T17:17:50.844Z,98067.50
2023-03-28T17:20:17.466Z,98069.59
2023-03-28T17:22:44.043Z,98073.28
2023-03-28T17:25:10.649Z,98072.28
2023-03-28T17:27:37.212Z,98073.94
2023-03-28T17:30:03.799Z,98079.00
2023-03-28T17:32:30.752Z,98074.09
2023-03-28T17:34:57.391Z,98076.56
2023-03-28T17:37:23.992Z,98080.16
2023-03-28T17:39:50.599Z,98086.41
2023-03-28T17:42:17.154Z,98091.31
2023-03-28T17:44:43.786Z,98094.78
2023-03-28T17:47:10.357Z,98096.25
2023-03-28T17:49:36.972Z,98094.91
2023-03-28T17:52:03.557Z,98100.34
2023-03-28T17:54:30.205Z,98109.38
2023-03-28T17:56:56.820Z,98112.31
2023-03-28T17:59:23.404Z,98116.09
2023-03-28T18:01:50.036Z,98121.69
2023-03-28T18:04:16.636Z,98115.91
2023-03-28T18:06:43.205Z,98120.00
2023-03-28T18:09:09.766Z,98133.09
2023-03-28T18:11:36.463Z,98135.41
2023-03-28T18:14:03.027Z,98131.13
2023-03-28T18:16:29.622Z,98136.22
2023-03-28T18:18:56.244Z,98136.16
2023-03-28T18:21:22.794Z,98138.09
2023-03-28T18:23:49.415Z,98148.53
2023-03-28T18:26:15.972Z,98143.75
2023-03-28T18:28:42.547Z,98141.44
2023-03-28T18:31:09.166Z,98135.50
2023-03-28T18:33:35.759Z,98144.13
2023-03-28T18:36:02.558Z,98143.94
2023-03-28T18:38:29.298Z,98136.94
2023-03-28T18:40:55.910Z,98149.06
2023-03-28T18:43:23.094Z,98146.09
2023-03-28T18:45:49.772Z,98152.38
2023-03-28T18:48:16.429Z,98147.88
2023-03-28T18:50:43.007Z,98151.03
2023-03-28T18:53:11.882Z,98157.53
2023-03-28T18:55:38.465Z,98159.19
2023-03-28T18:58:05.042Z,98162.53
2023-03-28T19:00:31.605Z,98163.72
2023-03-28T19:02:58.362Z,98163.13
2023-03-28T19:05:25.049Z,98164.03
2023-03-28T19:07:51.697Z,98170.38
2023-03-28T19:10:18.287Z,98172.84
2023-03-28T19:12:44.891Z,98171.16
2023-03-28T19:15:11.471Z,98168.22
2023-03-28T19:17:38.145Z,98160.66
2023-03-28T19:20:04.786Z,98166.91
2023-03-28T19:22:31.362Z,98173.22
2023-03-28T19:24:57.959Z,98171.97
2023-03-28T19:27:24.549Z,98174.31
2023-03-28T19:29:51.104Z,98173.84
2023-03-28T19:32:17.701Z,98170.78
2023-03-28T19:34:44.255Z,98177.59
2023-03-28T19:37:10.850Z,98171.78
2023-03-28T19:39:41.937Z,98178.41
2023-03-28T19:42:08.496Z,98174.03
2023-03-28T19:44:35.105Z,98174.31
2023-03-28T19:47:01.742Z,98166.19
2023-03-28T19:52:12.568Z,98160.03
2023-03-28T19:54:39.136Z,98147.25
2023-03-28T19:57:08.050Z,98153.97
2023-03-28T19:59:35.124Z,98152.97
2023-03-28T20:02:01.930Z,98150.91
2023-03-28T20:04:28.637Z,98144.84
2023-03-28T20:06:55.260Z,98145.88
2023-03-28T20:09:21.831Z,98142.75
2023-03-28T20:11:48.390Z,98160.22
2023-03-28T20:14:14.952Z,98161.59
2023-03-28T20:16:41.481Z,98165.41
2023-03-28T20:19:08.064Z,98162.09
2023-03-28T20:21:34.649Z,98165.25
2023-03-28T20:24:01.214Z,98159.31
2023-03-28T20:26:27.846Z,98164.81
2023-03-28T20:28:54.478Z,98169.41
2023-03-28T20:31:21.080Z,98169.81
2023-03-28T20:33:47.918Z,98168.59
2023-03-28T20:36:14.493Z,98168.59
2023-03-28T20:38:41.073Z,98181.41
2023-03-28T20:41:07.629Z,98185.28
2023-03-28T20:43:34.208Z,98183.56
2023-03-28T20:46:00.778Z,98190.66
2023-03-28T20:48:27.324Z,98200.69
2023-03-28T20:50:53.914Z,98199.03
2023-03-28T20:53:20.520Z,98196.56
2023-03-28T20:55:47.094Z,98196.28
2023-03-28T20:58:13.693Z,98193.00
2023-03-28T21:00:40.345Z,98196.00
2023-03-28T21:03:06.941Z,98199.84
2023-03-28T21:05:33.549Z,98204.41
2023-03-28T21:08:00.201Z,98201.22
2023-03-28T21:10:28.657Z,98203.25
2023-03-28T21:12:55.252Z,98197.72
2023-03-28T21:15:21.845Z,98208.03
2023-03-28T21:17:48.511Z,98204.94
2023-03-28T21:20:15.135Z,98198.97
2023-03-28T21:22:41.721Z,98194.13
2023-03-28T21:25:08.317Z,98195.25
2023-03-28T21:27:34.926Z,98193.91
2023-03-28T21:30:01.559Z,98188.44
2023-03-28T21:32:28.306Z,98189.41
2023-03-28T21:34:54.909Z,98184.03
2023-03-28T21:37:21.491Z,98184.19
2023-03-28T21:39:48.099Z,98175.63
2023-03-28T21:42:14.783Z,98172.38
2023-03-28T21:44:41.409Z,98168.28
2023-03-28T21:47:07.996Z,98168.16
2023-03-28T21:49:34.581Z,98165.28
2023-03-28T21:52:01.165Z,98156.44
2023-03-28T21:54:27.742Z,98147.25
2023-03-28T21:56:54.312Z,98148.22
2023-03-28T21:59:21.061Z,98148.75
2023-03-28T22:01:47.667Z,98149.56
2023-03-28T22:04:14.569Z,98143.00
2023-03-28T22:06:41.129Z,98137.91
2023-03-28T22:09:10.132Z,98140.22
2023-03-28T22:11:36.687Z,98142.25
2023-03-28T22:14:03.300Z,98139.00
2023-03-28T22:16:29.846Z,98148.72
2023-03-28T22:18:56.399Z,98155.19
2023-03-28T22:21:22.976Z,98160.78
2023-03-28T22:23:49.556Z,98157.78
2023-03-28T22:26:16.174Z,98160.97
2023-03-28T22:28:42.819Z,98155.03
2023-03-28T22:31:09.451Z,98159.41
2023-03-28T22:33:36.115Z,98158.88
2023-03-28T22:36:02.649Z,98167.94
2023-03-28T22:38:29.317Z,98162.75
2023-03-28T22:40:55.884Z,98159.00
2023-03-28T22:43:22.453Z,98157.44
2023-03-28T22:45:49.023Z,98150.34
2023-03-28T22:48:15.646Z,98152.41
2023-03-28T22:50:42.246Z,98147.31
2023-03-28T22:53:08.823Z,98145.69
2023-03-28T22:55:35.442Z,98141.53
2023-03-28T22:58:01.989Z,98142.97
2023-03-28T23:00:28.668Z,98140.56
2023-03-28T23:02:55.306Z,98141.97
2023-03-28T23:05:22.177Z,98134.28
2023-03-28T23:07:48.920Z,98137.72
2023-03-28T23:10:15.693Z,98135.84
2023-03-28T23:12:42.361Z,98128.63
2023-03-28T23:15:09.127Z,98129.41
2023-03-28T23:17:35.885Z,98135.28
2023-03-28T23:20:02.515Z,98134.63
2023-03-28T23:22:29.060Z,98141.81
2023-03-28T23:24:56.165Z,98138.25
2023-03-28T23:27:22.741Z,98139.25
2023-03-28T23:29:49.331Z,98131.31
2023-03-28T23:32:16.963Z,98145.31
2023-03-28T23:34:43.581Z,98143.97
2023-03-28T23:37:10.257Z,98141.91
2023-03-28T23:39:36.821Z,98141.44
2023-03-28T23:42:03.426Z,98141.06
2023-03-28T23:44:29.994Z,98142.31
2023-03-28T23:46:56.545Z,98144.38
2023-03-28T23:49:23.156Z,98152.31
2023-03-28T23:51:49.711Z,98148.22
2023-03-28T23:54:16.286Z,98146.44
2023-03-28T23:56:42.932Z,98142.84
2023-03-28T23:59:09.672Z,98147.78
